createdAt,value
2016-08-20T00:00:07.173Z,18
2016-08-20T00:00:31.283Z,18
2016-08-20T00:00:55.470Z,18.1
2016-08-20T00:01:19.596Z,18
2016-08-20T00:01:43.734Z,18
2016-08-20T00:02:07.882Z,18
2016-08-20T00:02:32.008Z,18.1
2016-08-20T00:02:56.159Z,18.1
2016-08-20T00:03:20.276Z,18
2016-08-20T00:03:44.410Z,18
2016-08-20T00:04:08.531Z,18
2016-08-20T00:04:32.628Z,18
2016-08-20T00:04:56.738Z,18
2016-08-20T00:05:20.841Z,18.1
2016-08-20T00:05:44.996Z,18.1
2016-08-20T00:06:09.132Z,18.1
2016-08-20T00:06:33.311Z,18
2016-08-20T00:06:57.420Z,18
2016-08-20T00:07:21.560Z,18
2016-08-20T00:07:45.680Z,18
2016-08-20T00:08:09.776Z,17.9
2016-08-20T00:08:34.041Z,17.9
2016-08-20T00:08:58.169Z,18
2016-08-20T00:09:22.314Z,18
2016-08-20T00:09:46.416Z,18
2016-08-20T00:10:10.592Z,18
2016-08-20T00:10:34.723Z,18
2016-08-20T00:10:58.905Z,18
2016-08-20T00:11:23.125Z,18
2016-08-20T00:11:47.256Z,17.9
2016-08-20T00:12:11.389Z,17.9
2016-08-20T00:12:35.525Z,18
2016-08-20T00:12:59.857Z,17.9
2016-08-20T00:13:23.970Z,17.9
2016-08-20T00:13:48.136Z,17.9
2016-08-20T00:14:12.271Z,17.9
2016-08-20T00:14:36.447Z,17.9
2016-08-20T00:15:00.562Z,17.9
2016-08-20T00:15:24.686Z,17.9
2016-08-20T00:15:48.818Z,17.9
2016-08-20T00:16:13.037Z,17.9
2016-08-20T00:16:37.159Z,18
2016-08-20T00:17:01.265Z,17.9
2016-08-20T00:17:25.387Z,18
2016-08-20T00:17:49.538Z,17.9
2016-08-20T00:18:13.650Z,17.9
2016-08-20T00:18:37.757Z,17.9
2016-08-20T00:19:01.856Z,18
2016-08-20T00:19:25.966Z,18
2016-08-20T00:19:50.086Z,17.9
2016-08-20T00:20:14.210Z,17.9
2016-08-20T00:20:38.343Z,18
2016-08-20T00:21:02.479Z,17.9
2016-08-20T00:21:26.669Z,17.9
2016-08-20T00:21:50.831Z,17.9
2016-08-20T00:22:14.952Z,17.9
2016-08-20T00:22:39.080Z,17.9
2016-08-20T00:23:03.178Z,17.9
2016-08-20T00:23:27.265Z,17.9
2016-08-20T00:23:51.365Z,17.8
2016-08-20T00:24:15.472Z,17.8
2016-08-20T00:24:39.594Z,17.8
2016-08-20T00:25:03.719Z,17.8
2016-08-20T00:25:27.833Z,17.8
2016-08-20T00:25:51.953Z,17.8
2016-08-20T00:26:16.120Z,17.8
2016-08-20T00:26:40.247Z,17.9
2016-08-20T00:27:04.441Z,17.8
2016-08-20T00:27:28.573Z,17.8
2016-08-20T00:27:52.675Z,17.8
2016-08-20T00:28:16.794Z,17.8
2016-08-20T00:28:40.931Z,17.8
2016-08-20T00:29:05.048Z,17.8
2016-08-20T00:29:29.214Z,17.7
2016-08-20T00:29:53.313Z,17.7
2016-08-20T00:30:17.445Z,17.8
2016-08-20T00:30:41.571Z,17.7
2016-08-20T00:31:05.691Z,17.8
2016-08-20T00:31:29.841Z,17.7
2016-08-20T00:31:53.974Z,17.8
2016-08-20T00:32:18.089Z,17.7
2016-08-20T00:32:42.211Z,17.8
2016-08-20T00:33:06.314Z,17.8
2016-08-20T00:33:30.452Z,17.7
2016-08-20T00:33:54.564Z,17.8
2016-08-20T00:34:18.673Z,17.8
2016-08-20T00:34:42.809Z,17.8
2016-08-20T00:35:06.937Z,17.8
2016-08-20T00:35:31.092Z,17.8
2016-08-20T00:35:55.289Z,17.7
2016-08-20T00:36:19.390Z,17.8
2016-08-20T00:36:43.525Z,17.8
2016-08-20T00:37:07.639Z,17.9
2016-08-20T00:37:31.839Z,17.8
2016-08-20T00:37:56.025Z,17.8
2016-08-20T00:38:20.241Z,17.8
2016-08-20T00:38:44.377Z,17.8
2016-08-20T00:39:08.563Z,17.8
2016-08-20T00:39:32.661Z,17.8
2016-08-20T00:39:56.826Z,17.8
2016-08-20T00:40:20.959Z,17.8
2016-08-20T00:40:45.165Z,17.8
2016-08-20T00:41:09.257Z,17.7
2016-08-20T00:41:33.386Z,17.7
2016-08-20T00:41:57.586Z,17.7
2016-08-20T00:42:21.695Z,17.7
2016-08-20T00:42:45.826Z,17.8
2016-08-20T00:43:09.933Z,17.7
2016-08-20T00:43:34.075Z,17.7
2016-08-20T00:43:58.198Z,17.8
2016-08-20T00:44:22.314Z,17.7
2016-08-20T00:44:46.452Z,17.7
2016-08-20T00:45:10.555Z,17.7
2016-08-20T00:45:34.667Z,17.8
2016-08-20T00:45:58.782Z,17.7
2016-08-20T00:46:22.898Z,17.7
2016-08-20T00:46:47.005Z,17.7
2016-08-20T00:47:11.114Z,17.7
2016-08-20T00:47:35.222Z,17.7
2016-08-20T00:47:59.326Z,17.8
2016-08-20T00:48:23.423Z,17.7
2016-08-20T00:48:47.533Z,17.7
2016-08-20T00:49:11.667Z,17.7
2016-08-20T00:49:35.761Z,17.7
2016-08-20T00:49:59.875Z,17.7
2016-08-20T00:50:24.011Z,17.7
2016-08-20T00:50:48.117Z,17.7
2016-08-20T00:51:12.222Z,17.7
2016-08-20T00:51:36.339Z,17.7
2016-08-20T00:52:00.474Z,17.7
2016-08-20T00:52:24.591Z,17.7
2016-08-20T00:52:48.682Z,17.8
2016-08-20T00:53:12.791Z,17.7
2016-08-20T00:53:36.920Z,17.7
2016-08-20T00:54:01.065Z,17.7
2016-08-20T00:54:25.170Z,17.7
2016-08-20T00:54:49.276Z,17.7
2016-08-20T00:55:13.391Z,17.7
2016-08-20T00:55:37.530Z,17.7
2016-08-20T00:56:01.440Z,17.6
2016-08-20T00:56:25.529Z,17.7
2016-08-20T00:56:49.683Z,17.7
2016-08-20T00:57:13.804Z,17.6
2016-08-20T00:57:37.934Z,17.6
2016-08-20T00:58:02.035Z,17.7
2016-08-20T00:58:26.144Z,17.6
2016-08-20T00:58:50.261Z,17.5
2016-08-20T00:59:14.381Z,17.6
2016-08-20T00:59:38.469Z,17.6
2016-08-20T01:00:02.579Z,17.6
2016-08-20T01:00:26.693Z,17.7
2016-08-20T01:00:50.838Z,17.6
2016-08-20T01:01:15.035Z,17.6
2016-08-20T01:01:39.173Z,17.5
2016-08-20T01:02:03.278Z,17.6
2016-08-20T01:02:27.402Z,17.6
2016-08-20T01:02:51.509Z,17.6
2016-08-20T01:03:15.666Z,17.6
2016-08-20T01:03:39.853Z,17.6
2016-08-20T01:04:03.994Z,17.7
2016-08-20T01:04:28.111Z,17.7
2016-08-20T01:04:52.215Z,17.7
2016-08-20T01:05:16.322Z,17.7
2016-08-20T01:05:40.458Z,17.7
2016-08-20T01:06:04.609Z,17.7
2016-08-20T01:06:28.727Z,17.7
2016-08-20T01:06:52.877Z,17.7
2016-08-20T01:07:17.066Z,17.7
2016-08-20T01:07:41.247Z,17.7
2016-08-20T01:08:05.362Z,17.7
2016-08-20T01:08:29.501Z,17.7
2016-08-20T01:08:53.642Z,17.7
2016-08-20T01:09:17.754Z,17.7
2016-08-20T01:09:41.851Z,17.7
2016-08-20T01:10:05.971Z,17.7
2016-08-20T01:10:30.088Z,17.7
2016-08-20T01:10:54.190Z,17.7
2016-08-20T01:11:18.273Z,17.8
2016-08-20T01:11:42.377Z,17.7
2016-08-20T01:12:06.483Z,17.7
2016-08-20T01:12:30.725Z,17.7
2016-08-20T01:12:54.835Z,17.8
2016-08-20T01:13:18.935Z,17.8
2016-08-20T01:13:43.072Z,17.8
2016-08-20T01:14:07.226Z,17.8
2016-08-20T01:14:31.345Z,17.8
2016-08-20T01:14:55.456Z,17.8
2016-08-20T01:15:19.579Z,17.8
2016-08-20T01:15:43.683Z,17.8
2016-08-20T01:16:07.793Z,17.7
2016-08-20T01:16:31.904Z,17.7
2016-08-20T01:16:56.078Z,17.8
2016-08-20T01:17:20.257Z,17.8
2016-08-20T01:17:44.380Z,17.7
2016-08-20T01:18:08.911Z,17.8
2016-08-20T01:18:33.060Z,17.8
2016-08-20T01:18:57.184Z,17.8
2016-08-20T01:19:21.280Z,17.8
2016-08-20T01:19:45.405Z,17.8
2016-08-20T01:20:09.530Z,17.8
2016-08-20T01:20:34.616Z,17.8
2016-08-20T01:20:58.736Z,17.8
2016-08-20T01:21:22.849Z,17.8
2016-08-20T01:21:46.978Z,17.8
2016-08-20T01:22:11.100Z,17.9
2016-08-20T01:22:35.230Z,17.9
2016-08-20T01:22:59.337Z,18
2016-08-20T01:23:23.444Z,17.9
2016-08-20T01:23:47.582Z,17.9
2016-08-20T01:24:11.744Z,18
2016-08-20T01:24:35.835Z,17.9
2016-08-20T01:24:59.940Z,17.9
2016-08-20T01:25:24.102Z,18
2016-08-20T01:25:48.241Z,17.9
2016-08-20T01:26:12.367Z,17.9
2016-08-20T01:26:36.487Z,17.9
2016-08-20T01:27:00.624Z,18
2016-08-20T01:27:24.769Z,17.9
2016-08-20T01:27:48.871Z,18
2016-08-20T01:28:12.981Z,17.9
2016-08-20T01:28:37.134Z,18
2016-08-20T01:29:01.268Z,18
2016-08-20T01:29:25.352Z,18
2016-08-20T01:29:49.485Z,18
2016-08-20T01:30:13.584Z,18
2016-08-20T01:30:37.725Z,18
2016-08-20T01:31:01.825Z,18
2016-08-20T01:31:25.932Z,18
2016-08-20T01:31:50.056Z,18
2016-08-20T01:32:14.233Z,18
2016-08-20T01:32:38.354Z,18
2016-08-20T01:33:02.468Z,18
2016-08-20T01:33:26.578Z,18
2016-08-20T01:33:50.749Z,18
2016-08-20T01:34:14.862Z,18
2016-08-20T01:34:38.940Z,18
2016-08-20T01:35:03.070Z,18
2016-08-20T01:35:27.186Z,18
2016-08-20T01:35:51.314Z,18
2016-08-20T01:36:15.447Z,18
2016-08-20T01:36:39.556Z,18
2016-08-20T01:37:03.674Z,18.1
2016-08-20T01:37:27.788Z,18
2016-08-20T01:37:51.895Z,18
2016-08-20T01:38:16.003Z,18
2016-08-20T01:38:40.169Z,18
2016-08-20T01:39:04.275Z,18.1
2016-08-20T01:39:28.374Z,18
2016-08-20T01:39:52.533Z,18
2016-08-20T01:40:16.622Z,18
2016-08-20T01:40:40.742Z,18
2016-08-20T01:41:04.857Z,18.1
2016-08-20T01:41:28.965Z,18
2016-08-20T01:41:53.089Z,18.1
2016-08-20T01:42:17.222Z,18
2016-08-20T01:42:41.326Z,18
2016-08-20T01:43:05.425Z,18.1
2016-08-20T01:43:29.546Z,18
2016-08-20T01:43:53.650Z,18.1
2016-08-20T01:44:17.775Z,18
2016-08-20T01:44:41.900Z,18
2016-08-20T01:45:06.019Z,18.1
2016-08-20T01:45:30.128Z,18
2016-08-20T01:45:54.224Z,18
2016-08-20T01:46:18.347Z,18.1
2016-08-20T01:46:42.471Z,18.1
2016-08-20T01:47:06.601Z,18
2016-08-20T01:47:30.712Z,18
2016-08-20T01:47:54.817Z,18.1
2016-08-20T01:48:18.946Z,18
2016-08-20T01:48:43.085Z,18.1
2016-08-20T01:49:07.244Z,18
2016-08-20T01:49:31.340Z,18
2016-08-20T01:49:55.466Z,18
2016-08-20T01:50:19.562Z,18
2016-08-20T01:50:43.715Z,18
2016-08-20T01:51:07.835Z,18.1
2016-08-20T01:51:31.963Z,18
2016-08-20T01:51:56.105Z,18
2016-08-20T01:52:20.233Z,18.1
2016-08-20T01:52:44.347Z,18.1
2016-08-20T01:53:08.485Z,18.1
2016-08-20T01:53:32.598Z,18
2016-08-20T01:53:56.744Z,18
2016-08-20T01:54:20.882Z,18.1
2016-08-20T01:54:45.062Z,18
2016-08-20T01:55:09.247Z,18
2016-08-20T01:55:33.374Z,18
2016-08-20T01:55:57.499Z,18
2016-08-20T01:56:21.604Z,18.1
2016-08-20T01:56:45.735Z,18
2016-08-20T01:57:09.862Z,18
2016-08-20T01:57:33.991Z,18
2016-08-20T01:57:58.131Z,18
2016-08-20T01:58:22.243Z,18
2016-08-20T01:58:46.392Z,18
2016-08-20T01:59:10.513Z,18
2016-08-20T01:59:34.633Z,18
2016-08-20T01:59:58.759Z,18
2016-08-20T02:00:22.914Z,18
2016-08-20T02:00:47.058Z,18
2016-08-20T02:01:11.162Z,18
2016-08-20T02:01:35.287Z,18
2016-08-20T02:01:59.397Z,18
2016-08-20T02:02:23.522Z,18
2016-08-20T02:02:47.637Z,18
2016-08-20T02:03:11.742Z,18
2016-08-20T02:03:35.892Z,18
2016-08-20T02:04:00.018Z,18
2016-08-20T02:04:24.140Z,18
2016-08-20T02:04:48.248Z,18.1
2016-08-20T02:05:12.374Z,18.1
2016-08-20T02:05:36.498Z,18.1
2016-08-20T02:06:00.626Z,18
2016-08-20T02:06:24.731Z,18
2016-08-20T02:06:48.868Z,18
2016-08-20T02:07:13.001Z,18
2016-08-20T02:07:37.192Z,18
2016-08-20T02:08:01.299Z,18
2016-08-20T02:08:25.484Z,18
2016-08-20T02:08:49.584Z,18
2016-08-20T02:09:13.943Z,18
2016-08-20T02:09:38.077Z,18
2016-08-20T02:10:02.198Z,18
2016-08-20T02:10:26.348Z,17.9
2016-08-20T02:10:50.443Z,18
2016-08-20T02:11:14.578Z,18
2016-08-20T02:11:38.685Z,18
2016-08-20T02:12:02.840Z,18
2016-08-20T02:12:27.013Z,18
2016-08-20T02:12:51.115Z,18
2016-08-20T02:13:15.233Z,18
2016-08-20T02:13:39.371Z,18
2016-08-20T02:14:03.489Z,18
2016-08-20T02:14:27.605Z,18
2016-08-20T02:14:51.739Z,18
2016-08-20T02:15:15.938Z,18
2016-08-20T02:15:40.152Z,18
2016-08-20T02:16:04.272Z,18
2016-08-20T02:16:28.433Z,18
2016-08-20T02:16:52.568Z,18
2016-08-20T02:17:16.729Z,18
2016-08-20T02:17:40.860Z,18
2016-08-20T02:18:04.974Z,18
2016-08-20T02:18:29.077Z,18
2016-08-20T02:18:54.784Z,18
2016-08-20T02:19:18.902Z,18
2016-08-20T02:19:42.992Z,18
2016-08-20T02:20:07.107Z,18
2016-08-20T02:20:31.260Z,18
2016-08-20T02:20:55.403Z,18
2016-08-20T02:21:19.534Z,18
2016-08-20T02:21:43.684Z,18
2016-08-20T02:22:07.808Z,18.1
2016-08-20T02:22:31.927Z,17.9
2016-08-20T02:22:56.030Z,18
2016-08-20T02:23:20.161Z,18
2016-08-20T02:23:44.303Z,18
2016-08-20T02:24:08.401Z,17.9
2016-08-20T02:24:32.517Z,17.9
2016-08-20T02:24:56.700Z,18
2016-08-20T02:25:20.870Z,18
2016-08-20T02:25:44.990Z,18
2016-08-20T02:26:09.104Z,18
2016-08-20T02:26:33.234Z,18
2016-08-20T02:26:57.369Z,18
2016-08-20T02:27:21.489Z,17.9
2016-08-20T02:27:45.620Z,17.9
2016-08-20T02:28:09.720Z,17.9
2016-08-20T02:28:33.846Z,17.9
2016-08-20T02:28:58.017Z,17.9
2016-08-20T02:29:22.205Z,18
2016-08-20T02:29:46.400Z,17.9
2016-08-20T02:30:10.515Z,17.9
2016-08-20T02:30:34.664Z,17.9
2016-08-20T02:30:58.799Z,17.9
2016-08-20T02:31:22.919Z,17.9
2016-08-20T02:31:47.031Z,17.9
2016-08-20T02:32:11.197Z,17.9
2016-08-20T02:32:35.307Z,17.9
2016-08-20T02:32:59.413Z,17.9
2016-08-20T02:33:23.542Z,18
2016-08-20T02:33:47.805Z,17.8
2016-08-20T02:34:11.929Z,17.8
2016-08-20T02:34:36.044Z,17.8
2016-08-20T02:35:00.189Z,17.8
2016-08-20T02:35:24.333Z,17.8
2016-08-20T02:35:48.487Z,17.8
2016-08-20T02:36:12.593Z,17.8
2016-08-20T02:36:36.741Z,17.9
2016-08-20T02:37:00.902Z,17.8
2016-08-20T02:37:25.065Z,17.8
2016-08-20T02:37:49.149Z,17.8
2016-08-20T02:38:13.333Z,17.8
2016-08-20T02:38:37.466Z,17.9
2016-08-20T02:39:01.590Z,17.8
2016-08-20T02:39:25.784Z,17.8
2016-08-20T02:39:49.889Z,17.9
2016-08-20T02:40:14.011Z,17.9
2016-08-20T02:40:38.136Z,17.9
2016-08-20T02:41:02.280Z,17.9
2016-08-20T02:41:26.434Z,17.9
2016-08-20T02:41:50.528Z,17.9
2016-08-20T02:42:14.630Z,17.8
2016-08-20T02:42:38.726Z,17.8
2016-08-20T02:43:02.848Z,17.9
2016-08-20T02:43:26.960Z,17.9
2016-08-20T02:43:51.113Z,17.9
2016-08-20T02:44:15.222Z,17.9
2016-08-20T02:44:39.328Z,17.9
2016-08-20T02:45:03.435Z,17.9
2016-08-20T02:45:27.560Z,17.9
2016-08-20T02:45:51.685Z,17.9
2016-08-20T02:46:15.789Z,17.9
2016-08-20T02:46:39.916Z,17.8
2016-08-20T02:47:04.033Z,17.8
2016-08-20T02:47:28.153Z,17.8
2016-08-20T02:47:52.386Z,17.8
2016-08-20T02:48:16.526Z,17.9
2016-08-20T02:48:40.707Z,17.8
2016-08-20T02:49:04.831Z,17.8
2016-08-20T02:49:29.082Z,17.7
2016-08-20T02:49:53.200Z,17.8
2016-08-20T02:50:17.301Z,17.8
2016-08-20T02:50:41.421Z,17.8
2016-08-20T02:51:05.517Z,17.8
2016-08-20T02:51:29.635Z,17.8
2016-08-20T02:51:53.752Z,17.8
2016-08-20T02:52:17.896Z,17.8
2016-08-20T02:52:41.999Z,17.9
2016-08-20T02:53:06.122Z,17.8
2016-08-20T02:53:30.228Z,17.8
2016-08-20T02:53:54.376Z,17.8
2016-08-20T02:54:18.508Z,17.7
2016-08-20T02:54:42.616Z,17.8
2016-08-20T02:55:06.737Z,17.7
2016-08-20T02:55:30.837Z,17.8
2016-08-20T02:55:54.970Z,17.8
2016-08-20T02:56:19.068Z,17.7
2016-08-20T02:56:43.198Z,17.7
2016-08-20T02:57:07.301Z,17.8
2016-08-20T02:57:31.409Z,17.7
2016-08-20T02:57:55.568Z,17.7
2016-08-20T02:58:19.732Z,17.7
2016-08-20T02:58:43.851Z,17.8
2016-08-20T02:59:07.977Z,17.8
2016-08-20T02:59:32.070Z,17.7
2016-08-20T02:59:56.178Z,17.7
2016-08-20T03:00:20.313Z,17.9
2016-08-20T03:00:44.443Z,17.8
2016-08-20T03:01:08.580Z,17.8
2016-08-20T03:01:32.712Z,17.8
2016-08-20T03:01:56.862Z,17.8
2016-08-20T03:02:20.953Z,17.7
2016-08-20T03:02:45.139Z,17.7
2016-08-20T03:03:09.256Z,17.8
2016-08-20T03:03:33.366Z,17.8
2016-08-20T03:03:57.483Z,17.7
2016-08-20T03:04:21.624Z,17.8
2016-08-20T03:04:45.752Z,17.7
2016-08-20T03:05:09.877Z,17.7
2016-08-20T03:05:34.843Z,17.8
2016-08-20T03:05:58.998Z,17.8
2016-08-20T03:06:23.133Z,17.7
2016-08-20T03:06:47.242Z,17.8
2016-08-20T03:07:11.369Z,17.8
2016-08-20T03:07:35.489Z,17.8
2016-08-20T03:07:59.574Z,17.8
2016-08-20T03:08:23.680Z,17.7
2016-08-20T03:08:47.802Z,17.8
2016-08-20T03:09:11.916Z,17.8
2016-08-20T03:09:35.999Z,17.8
2016-08-20T03:10:00.118Z,17.8
2016-08-20T03:10:24.244Z,17.8
2016-08-20T03:10:48.391Z,17.8
2016-08-20T03:11:12.483Z,17.9
2016-08-20T03:11:36.623Z,17.8
2016-08-20T03:12:00.731Z,17.8
2016-08-20T03:12:24.845Z,17.8
2016-08-20T03:12:48.944Z,17.8
2016-08-20T03:13:13.065Z,17.8
2016-08-20T03:13:37.209Z,17.8
2016-08-20T03:14:01.336Z,17.8
2016-08-20T03:14:25.449Z,17.7
2016-08-20T03:14:49.573Z,17.7
2016-08-20T03:15:13.706Z,17.6
2016-08-20T03:15:37.832Z,17.7
2016-08-20T03:16:01.959Z,17.7
2016-08-20T03:16:26.057Z,17.7
2016-08-20T03:16:50.192Z,17.8
2016-08-20T03:17:14.319Z,17.7
2016-08-20T03:17:38.426Z,17.8
2016-08-20T03:18:02.568Z,17.7
2016-08-20T03:18:26.753Z,17.7
2016-08-20T03:18:50.859Z,17.7
2016-08-20T03:19:14.967Z,17.7
2016-08-20T03:19:39.091Z,17.8
2016-08-20T03:20:03.248Z,17.7
2016-08-20T03:20:27.368Z,17.7
2016-08-20T03:20:51.511Z,17.8
2016-08-20T03:21:15.613Z,17.7
2016-08-20T03:21:39.744Z,17.8
2016-08-20T03:22:03.878Z,17.8
2016-08-20T03:22:27.997Z,17.8
2016-08-20T03:22:52.155Z,17.7
2016-08-20T03:23:16.253Z,17.8
2016-08-20T03:23:40.368Z,17.8
2016-08-20T03:24:04.487Z,17.7
2016-08-20T03:24:28.644Z,17.9
2016-08-20T03:24:52.736Z,17.8
2016-08-20T03:25:16.911Z,17.8
2016-08-20T03:25:41.025Z,17.7
2016-08-20T03:26:05.171Z,17.7
2016-08-20T03:26:29.302Z,17.7
2016-08-20T03:26:53.413Z,17.8
2016-08-20T03:27:17.494Z,17.7
2016-08-20T03:27:41.591Z,17.7
2016-08-20T03:28:05.731Z,17.7
2016-08-20T03:28:29.835Z,17.7
2016-08-20T03:28:53.959Z,17.8
2016-08-20T03:29:18.061Z,17.7
2016-08-20T03:29:42.198Z,17.8
2016-08-20T03:30:06.304Z,17.7
2016-08-20T03:30:30.410Z,17.8
2016-08-20T03:30:54.569Z,17.8
2016-08-20T03:31:18.663Z,17.8
2016-08-20T03:31:42.773Z,17.7
2016-08-20T03:32:06.933Z,17.7
2016-08-20T03:32:31.062Z,17.8
2016-08-20T03:32:55.146Z,17.7
2016-08-20T03:33:19.280Z,17.8
2016-08-20T03:33:43.427Z,17.8
2016-08-20T03:34:07.577Z,17.8
2016-08-20T03:34:31.664Z,17.7
2016-08-20T03:34:55.877Z,17.9
2016-08-20T03:35:20.025Z,17.8
2016-08-20T03:35:44.146Z,17.8
2016-08-20T03:36:08.257Z,17.8
2016-08-20T03:36:32.416Z,17.8
2016-08-20T03:36:56.559Z,17.7
2016-08-20T03:37:20.677Z,17.8
2016-08-20T03:37:44.771Z,17.9
2016-08-20T03:38:08.880Z,17.9
2016-08-20T03:38:33.012Z,17.8
2016-08-20T03:38:57.109Z,17.8
2016-08-20T03:39:21.268Z,17.8
2016-08-20T03:39:45.369Z,17.8
2016-08-20T03:40:09.488Z,17.9
2016-08-20T03:40:33.628Z,17.8
2016-08-20T03:40:57.731Z,17.8
2016-08-20T03:41:21.841Z,17.9
2016-08-20T03:41:45.934Z,17.9
2016-08-20T03:42:10.048Z,17.9
2016-08-20T03:42:34.179Z,17.8
2016-08-20T03:42:58.288Z,17.8
2016-08-20T03:43:22.418Z,17.9
2016-08-20T03:43:46.548Z,18
2016-08-20T03:44:10.655Z,17.9
2016-08-20T03:44:34.781Z,17.8
2016-08-20T03:44:58.903Z,17.9
2016-08-20T03:45:23.050Z,17.9
2016-08-20T03:45:47.183Z,17.9
2016-08-20T03:46:11.294Z,18
2016-08-20T03:46:35.417Z,17.9
2016-08-20T03:46:59.537Z,17.9
2016-08-20T03:47:23.689Z,18
2016-08-20T03:47:47.815Z,17.9
2016-08-20T03:48:11.932Z,17.9
2016-08-20T03:48:36.054Z,17.9
2016-08-20T03:49:00.175Z,17.9
2016-08-20T03:49:24.274Z,17.9
2016-08-20T03:49:48.458Z,17.9
2016-08-20T03:50:12.604Z,18
2016-08-20T03:50:36.715Z,18
2016-08-20T03:51:00.818Z,18
2016-08-20T03:51:24.922Z,17.9
2016-08-20T03:51:49.097Z,17.9
2016-08-20T03:52:13.222Z,18
2016-08-20T03:52:37.291Z,17.9
2016-08-20T03:53:01.410Z,17.9
2016-08-20T03:53:25.578Z,18
2016-08-20T03:53:49.710Z,18
2016-08-20T03:54:13.838Z,18
2016-08-20T03:54:37.923Z,18
2016-08-20T03:55:02.092Z,18
2016-08-20T03:55:26.261Z,18
2016-08-20T03:55:50.396Z,18
2016-08-20T03:56:14.541Z,18
2016-08-20T03:56:38.656Z,18
2016-08-20T03:57:02.797Z,18
2016-08-20T03:57:26.918Z,18
2016-08-20T03:57:51.068Z,18
2016-08-20T03:58:15.184Z,18
2016-08-20T03:58:39.344Z,18.1
2016-08-20T03:59:03.486Z,18.1
2016-08-20T03:59:27.600Z,18.1
2016-08-20T03:59:51.746Z,18
2016-08-20T04:00:15.889Z,18.1
2016-08-20T04:00:40.119Z,18
2016-08-20T04:01:04.216Z,18
2016-08-20T04:01:28.348Z,18.1
2016-08-20T04:01:52.496Z,18
2016-08-20T04:02:16.624Z,18.1
2016-08-20T04:02:40.747Z,18.1
2016-08-20T04:03:04.831Z,18.1
2016-08-20T04:03:28.928Z,18.1
2016-08-20T04:03:53.096Z,18.1
2016-08-20T04:04:17.214Z,18.1
2016-08-20T04:04:41.343Z,18.1
2016-08-20T04:05:05.451Z,18.1
2016-08-20T04:05:29.587Z,18.1
2016-08-20T04:05:53.717Z,18.1
2016-08-20T04:06:17.851Z,18.1
2016-08-20T04:06:41.995Z,18.1
2016-08-20T04:07:06.145Z,18.1
2016-08-20T04:07:30.255Z,18.1
2016-08-20T04:07:54.361Z,18.1
2016-08-20T04:08:18.512Z,18.1
2016-08-20T04:08:42.631Z,18.2
2016-08-20T04:09:06.725Z,18.1
2016-08-20T04:09:30.850Z,18.2
2016-08-20T04:09:55.024Z,18.2
2016-08-20T04:10:19.139Z,18.2
2016-08-20T04:10:43.264Z,18.2
2016-08-20T04:11:07.415Z,18.2
2016-08-20T04:11:31.532Z,18.3
2016-08-20T04:11:55.658Z,18.3
2016-08-20T04:12:19.766Z,18.2
2016-08-20T04:12:43.879Z,18.2
2016-08-20T04:13:08.014Z,18.2
2016-08-20T04:13:32.103Z,18.2
2016-08-20T04:13:56.222Z,18.3
2016-08-20T04:14:20.356Z,18.3
2016-08-20T04:14:44.476Z,18.3
2016-08-20T04:15:08.612Z,18.2
2016-08-20T04:15:32.720Z,18.3
2016-08-20T04:15:56.849Z,18.1
2016-08-20T04:16:20.947Z,18.2
2016-08-20T04:16:45.055Z,18.3
2016-08-20T04:17:09.190Z,18.2
2016-08-20T04:17:33.311Z,18.3
2016-08-20T04:17:57.490Z,18.1
2016-08-20T04:18:21.577Z,18.2
2016-08-20T04:18:45.793Z,18.2
2016-08-20T04:19:09.907Z,18.2
2016-08-20T04:19:34.116Z,18.2
2016-08-20T04:19:58.272Z,18.2
2016-08-20T04:20:22.461Z,18.2
2016-08-20T04:20:46.609Z,18.2
2016-08-20T04:21:10.784Z,18.3
2016-08-20T04:21:34.937Z,18.2
2016-08-20T04:21:59.101Z,18.3
2016-08-20T04:22:23.215Z,18.2
2016-08-20T04:22:47.375Z,18.3
2016-08-20T04:23:11.446Z,18.2
2016-08-20T04:23:35.604Z,18.2
2016-08-20T04:23:59.717Z,18.3
2016-08-20T04:24:23.834Z,18.4
2016-08-20T04:24:48.176Z,18.3
2016-08-20T04:25:15.179Z,18.4
2016-08-20T04:27:01.961Z,18.4
2016-08-20T04:27:26.222Z,18.3
2016-08-20T04:27:50.465Z,18.4
2016-08-20T04:28:15.670Z,18.3
2016-08-20T04:28:39.786Z,18.3
2016-08-20T04:29:08.856Z,18.4
2016-08-20T04:29:46.213Z,18.3
2016-08-20T04:30:11.961Z,18.4
2016-08-20T04:30:36.124Z,18.4
2016-08-20T04:31:01.642Z,18.4
2016-08-20T04:31:27.984Z,18.4
2016-08-20T04:32:06.008Z,18.4
2016-08-20T04:32:33.129Z,18.3
2016-08-20T04:32:59.046Z,18.3
2016-08-20T04:33:31.678Z,18.4
2016-08-20T04:34:00.172Z,18.3
2016-08-20T04:34:26.659Z,18.3
2016-08-20T04:34:53.096Z,18.3
2016-08-20T04:35:19.665Z,18.4
2016-08-20T04:35:45.362Z,18.4
2016-08-20T04:36:19.267Z,18.4
2016-08-20T04:36:44.547Z,18.4
2016-08-20T04:37:09.976Z,18.3
2016-08-20T04:37:34.530Z,18.4
2016-08-20T04:37:59.234Z,18.3
2016-08-20T04:38:23.566Z,18.3
2016-08-20T04:38:47.695Z,18.3
2016-08-20T04:39:11.795Z,18.4
2016-08-20T04:39:36.920Z,18.3
2016-08-20T04:40:03.354Z,18.3
2016-08-20T04:40:30.958Z,18.3
2016-08-20T04:40:55.407Z,18.3
2016-08-20T04:41:21.852Z,18.2
2016-08-20T04:41:48.270Z,18.4
2016-08-20T04:42:15.157Z,18.3
2016-08-20T04:42:42.099Z,18.3
2016-08-20T04:43:07.590Z,18.2
2016-08-20T04:43:33.811Z,18.2
2016-08-20T04:44:01.421Z,18.3
2016-08-20T04:44:28.927Z,18.3
2016-08-20T04:44:58.080Z,18.3
2016-08-20T04:45:23.899Z,18.1
2016-08-20T04:45:49.542Z,18.3
2016-08-20T04:46:15.423Z,18.2
2016-08-20T04:46:41.807Z,18.2
2016-08-20T04:47:10.217Z,18.3
2016-08-20T04:47:38.335Z,18.3
2016-08-20T04:48:07.220Z,18.2
2016-08-20T04:48:32.249Z,18.2
2016-08-20T04:48:59.348Z,18.2
2016-08-20T04:49:26.548Z,18.2
2016-08-20T04:49:52.356Z,18.2
2016-08-20T04:50:18.563Z,18.2
2016-08-20T04:50:45.007Z,18.2
2016-08-20T04:51:10.407Z,18.2
2016-08-20T04:51:35.812Z,18.2
2016-08-20T04:51:59.907Z,18.2
2016-08-20T04:52:24.029Z,18.1
2016-08-20T04:52:48.141Z,18.1
2016-08-20T04:53:12.272Z,18.1
2016-08-20T04:53:36.400Z,18.1
2016-08-20T04:54:00.530Z,18.1
2016-08-20T04:54:24.634Z,18.1
2016-08-20T04:54:48.754Z,18.1
2016-08-20T04:55:12.866Z,18.1
2016-08-20T04:55:37.021Z,18.1
2016-08-20T04:56:01.159Z,18
2016-08-20T04:56:25.331Z,18.1
2016-08-20T04:56:49.454Z,18.1
2016-08-20T04:57:13.586Z,18
2016-08-20T04:57:37.753Z,18
2016-08-20T04:58:01.902Z,18.1
2016-08-20T04:58:26.035Z,18.1
2016-08-20T04:58:50.186Z,18.1
2016-08-20T04:59:14.322Z,18
2016-08-20T04:59:38.470Z,18
2016-08-20T05:00:02.583Z,18
2016-08-20T05:00:26.723Z,18
2016-08-20T05:00:50.938Z,18.1
2016-08-20T05:01:15.045Z,18
2016-08-20T05:01:39.539Z,18
2016-08-20T05:02:03.697Z,18.1
2016-08-20T05:02:27.868Z,18
2016-08-20T05:02:51.982Z,18
2016-08-20T05:03:16.130Z,18
2016-08-20T05:03:40.251Z,18
2016-08-20T05:04:04.402Z,18
2016-08-20T05:04:28.655Z,18
2016-08-20T05:04:52.799Z,17.9
2016-08-20T05:05:16.952Z,18
2016-08-20T05:05:41.094Z,18
2016-08-20T05:06:05.259Z,18
2016-08-20T05:06:29.421Z,18
2016-08-20T05:06:53.557Z,17.9
2016-08-20T05:07:17.694Z,17.9
2016-08-20T05:07:41.847Z,18
2016-08-20T05:08:05.960Z,18
2016-08-20T05:08:30.100Z,18
2016-08-20T05:08:54.349Z,18
2016-08-20T05:09:18.471Z,18
2016-08-20T05:09:42.641Z,18
2016-08-20T05:10:06.798Z,18
2016-08-20T05:10:30.959Z,18
2016-08-20T05:10:55.087Z,18
2016-08-20T05:11:19.202Z,18
2016-08-20T05:11:43.313Z,18
2016-08-20T05:12:07.470Z,18.1
2016-08-20T05:12:31.573Z,18
2016-08-20T05:12:55.713Z,18.1
2016-08-20T05:13:19.849Z,18
2016-08-20T05:13:43.987Z,18
2016-08-20T05:14:08.111Z,18.1
2016-08-20T05:14:32.250Z,18.1
2016-08-20T05:14:56.358Z,18.2
2016-08-20T05:15:20.515Z,18.1
2016-08-20T05:15:44.681Z,18.1
2016-08-20T05:16:08.819Z,18.2
2016-08-20T05:16:32.951Z,18.2
2016-08-20T05:16:57.094Z,18.2
2016-08-20T05:17:21.204Z,18.3
2016-08-20T05:17:45.341Z,18.2
2016-08-20T05:18:09.484Z,18.2
2016-08-20T05:18:34.489Z,18.2
2016-08-20T05:18:59.280Z,18.2
2016-08-20T05:19:23.499Z,18.1
2016-08-20T05:19:47.623Z,18.2
2016-08-20T05:20:11.801Z,18.3
2016-08-20T05:20:36.066Z,18.2
2016-08-20T05:21:00.217Z,18.3
2016-08-20T05:21:24.386Z,18.3
2016-08-20T05:21:48.525Z,18.2
2016-08-20T05:22:12.631Z,18.4
2016-08-20T05:22:36.873Z,18.3
2016-08-20T05:23:01.028Z,18.4
2016-08-20T05:23:25.195Z,18.4
2016-08-20T05:23:49.316Z,18.4
2016-08-20T05:24:13.439Z,18.4
2016-08-20T05:24:37.592Z,18.5
2016-08-20T05:25:01.891Z,18.5
2016-08-20T05:25:25.997Z,18.5
2016-08-20T05:25:50.110Z,18.5
2016-08-20T05:26:14.220Z,18.5
2016-08-20T05:26:38.346Z,18.5
2016-08-20T05:27:02.520Z,18.6
2016-08-20T05:27:26.675Z,18.6
2016-08-20T05:27:50.836Z,18.6
2016-08-20T05:28:15.010Z,18.6
2016-08-20T05:28:39.125Z,18.7
2016-08-20T05:29:03.250Z,18.5
2016-08-20T05:29:27.352Z,18.7
2016-08-20T05:29:51.498Z,18.7
2016-08-20T05:30:15.614Z,18.7
2016-08-20T05:30:39.729Z,18.7